Date,TemperatureHighF,TemperatureAvgF,TemperatureLowF,DewpointHighF,DewpointAvgF,DewpointLowF,HumidityHigh,HumidityAvg,HumidityLow,PressureMaxIn,PressureMinIn,WindSpeedMaxMPH,WindSpeedAvgMPH,GustSpeedMaxMPH,PrecipitationSumIn
2012-1-1,42.0,28.0,18.0,17.0,8.4,1.0,57,44,29,30.68,30.40,4,1,0,0.00
2012-1-2,49.0,33.5,26.0,22.0,15.9,12.0,62,50,29,30.68,30.49,4,0,0,0.00
2012-1-3,45.0,32.0,24.0,21.0,16.8,13.0,64,54,36,30.49,30.31,5,1,0,0.00
2012-1-4,49.0,32.2,25.0,20.0,12.6,6.0,58,45,22,30.57,30.43,5,0,0,0.00
2012-1-5,47.0,33.0,26.0,20.0,15.3,9.0,65,49,31,30.47,30.10,6,1,0,0.00
2012-1-6,43.0,30.9,23.0,23.0,18.1,13.0,71,60,43,30.11,30.02,6,1,0,0.00
2012-1-7,39.0,28.8,22.0,20.0,16.3,12.0,74,60,42,30.07,29.90,4,1,0,0.00
2012-1-8,38.0,27.2,20.0,18.0,12.4,8.0,68,54,36,30.27,30.00,4,1,0,0.00
2012-1-9,39.0,24.8,16.0,18.0,10.3,2.0,73,55,34,30.37,30.26,4,1,0,0.00
2012-1-10,38.0,27.5,20.0,21.0,16.3,13.0,74,63,46,30.36,30.09,6,1,0,0.00
2012-1-11,38.0,26.1,17.0,16.0,4.6,-9.0,79,46,18,30.20,29.95,9,1,0,0.00
2012-1-12,33.0,20.9,13.0,3.0,-1.9,-9.0,53,37,25,30.32,30.20,5,1,0,0.00
2012-1-13,36.0,20.7,11.0,7.0,1.7,-4.0,53,44,28,30.52,30.32,4,1,0,0.00
2012-1-14,41.0,25.0,15.0,11.0,6.2,1.0,56,45,26,30.53,30.34,5,1,0,0.00
2012-1-15,41.0,28.5,18.0,23.0,10.9,5.0,82,49,30,30.35,30.02,5,1,0,0.00
2012-1-16,31.0,26.6,23.0,25.0,21.0,11.0,92,79,58,30.04,29.75,9,2,0,0.00
2012-1-17,31.0,20.8,10.0,15.0,5.3,-4.0,74,52,25,30.40,30.05,5,2,0,0.00
2012-1-18,36.0,24.6,10.0,18.0,9.7,-3.0,71,54,41,30.47,30.25,5,1,0,0.00
2012-1-19,41.0,30.0,21.0,22.0,18.0,13.0,75,61,44,30.25,29.96,6,0,0,0.00
2012-1-20,46.0,33.3,26.0,23.0,18.3,12.0,74,55,30,30.08,29.91,6,1,0,0.00
2012-1-21,34.0,26.9,20.0,28.0,19.3,10.0,90,74,52,30.08,29.61,6,1,0,0.00
2012-1-22,37.0,25.8,15.0,22.0,15.2,9.0,88,66,36,30.16,29.61,4,1,0,0.00
2012-1-23,32.0,21.1,11.0,21.0,13.1,6.0,88,72,43,30.22,30.05,3,0,0,0.00
2012-1-24,36.0,26.6,20.0,27.0,20.6,13.0,88,78,61,30.27,29.98,4,0,0,0.00
2012-1-25,49.0,26.4,15.0,25.0,15.9,6.0,86,66,33,30.34,30.20,5,0,0,0.00
2012-1-26,39.0,28.8,21.0,24.0,19.8,13.0,87,70,46,30.31,30.03,8,1,0,0.00
2012-1-27,43.0,30.0,17.0,25.0,14.2,0.0,85,55,20,30.29,29.92,11,1,0,0.00
2012-1-28,33.0,20.9,10.0,15.0,6.0,-4.0,72,53,34,30.62,30.29,5,1,0,0.00
2012-1-29,39.0,26.2,16.0,18.0,13.0,8.0,74,58,37,30.62,30.36,9,1,0,0.00
2012-1-30,43.0,29.1,19.0,19.0,14.2,10.0,70,55,36,30.36,30.04,4,1,0,0.00
2012-1-31,41.0,27.9,19.0,21.0,12.0,3.0,76,52,32,30.26,30.08,5,1,0,0.00
2012-2-1,38.0,26.5,15.0,19.0,13.6,8.0,83,60,37,30.37,30.16,5,1,0,0.00
2012-2-2,31.0,26.6,23.0,25.0,21.6,15.0,88,82,52,30.17,29.80,3,0,0,0.00
2012-2-3,30.0,23.1,16.0,23.0,18.2,12.0,88,82,63,30.32,29.93,4,0,0,0.00
2012-2-4,33.0,22.2,14.0,19.0,14.5,9.0,88,73,48,30.42,30.32,2,0,0,0.00
2012-2-5,28.0,22.5,16.0,21.0,17.8,13.0,88,82,68,30.42,30.26,2,0,0,0.00
2012-2-6,30.0,22.9,14.0,20.0,17.1,8.0,88,78,64,30.26,30.11,4,1,0,0.00
2012-2-7,34.0,18.1,8.0,15.0,8.2,2.0,79,66,42,30.51,30.24,3,0,0,0.00
2012-2-8,40.0,26.5,12.0,24.0,13.9,5.0,76,60,41,30.53,30.27,4,1,0,0.00
2012-2-9,43.0,28.9,20.0,25.0,17.9,8.0,88,66,33,30.25,30.06,5,1,0,0.00
2012-2-10,39.0,24.2,12.0,20.0,10.9,3.0,75,58,37,30.33,30.24,4,1,0,0.00
2012-2-11,43.0,28.0,17.0,22.0,16.1,10.0,80,62,41,30.33,30.08,3,0,0,0.00
2012-2-12,30.0,26.9,25.0,24.0,22.0,16.0,89,82,64,30.08,29.76,4,1,0,0.00
2012-2-13,33.0,25.3,19.0,26.0,21.1,16.0,89,84,68,29.96,29.79,3,1,0,0.00
2012-2-14,34.0,27.2,21.0,24.0,22.0,16.0,89,81,56,29.91,29.77,5,1,0,0.00
2012-2-15,31.0,20.7,9.0,18.0,12.3,4.0,92,71,52,30.27,29.83,5,1,0,0.00
2012-2-16,38.0,24.7,16.0,19.0,13.7,9.0,75,64,40,30.36,30.21,4,0,0,0.00
2012-2-17,41.0,24.9,13.0,16.0,10.5,5.0,74,56,30,30.23,30.05,4,1,0,0.00
2012-2-18,38.0,24.5,13.0,18.0,9.2,1.0,68,53,32,30.17,30.08,5,1,0,0.00
2012-2-19,31.0,22.7,16.0,22.0,15.0,8.0,87,72,52,30.11,29.78,4,1,0,0.00
2012-2-20,29.0,17.2,4.0,13.0,5.2,-4.0,82,60,34,30.35,29.85,8,2,0,0.00
2012-2-21,40.0,23.8,13.0,19.0,12.5,6.0,79,63,42,30.35,30.22,6,1,0,0.00
2012-2-22,42.0,27.6,16.0,26.0,18.3,11.0,82,69,50,30.23,29.88,4,0,0,0.00
2012-2-23,40.0,30.9,12.0,24.0,11.7,-3.0,73,46,25,30.09,29.64,11,4,0,0.00
2012-2-24,38.0,19.6,6.0,14.0,2.9,-5.0,62,49,31,30.48,30.09,4,1,0,0.00
2012-2-25,45.0,29.5,16.0,17.0,8.7,4.0,66,44,23,30.46,29.93,8,2,0,0.00
2012-2-26,42.0,28.7,20.0,7.0,4.1,-4.0,48,36,16,30.13,29.91,5,1,0,0.00
2012-2-27,44.0,33.4,20.0,28.0,15.4,0.0,87,49,35,30.15,29.76,5,2,0,0.00
2012-2-28,31.0,25.0,21.0,28.0,21.1,17.0,90,85,77,30.14,29.58,10,3,0,0.00
2012-2-29,32.0,23.3,12.0,19.0,14.5,8.0,92,70,46,30.34,30.05,4,1,0,0.00
2012-3-1,29.0,22.8,11.0,22.0,12.2,-2.0,83,64,44,30.06,29.77,11,2,0,0.00
2012-3-2,31.0,16.8,5.0,13.0,4.6,-5.0,83,60,32,30.36,29.84,6,1,0,0.00
2012-3-3,34.0,15.1,1.0,14.0,1.9,-9.0,72,56,40,30.60,30.36,6,1,0,0.00
2012-3-4,45.0,27.3,12.0,23.0,14.4,7.0,81,60,35,30.58,30.39,6,1,0,0.00
2012-3-5,50.0,34.3,22.0,23.0,15.8,8.0,61,47,29,30.40,30.07,5,1,0,0.00
2012-3-6,47.0,36.5,26.0,17.0,15.0,13.0,62,43,27,30.08,29.57,6,1,0,0.00
2012-3-7,40.0,32.0,25.0,21.0,14.7,8.0,82,51,32,29.92,29.54,7,2,0,0.00
2012-3-8,37.0,30.2,24.0,25.0,20.3,16.0,86,67,53,30.25,29.91,3,0,0,0.00
2012-3-9,42.0,35.4,28.0,23.0,19.4,13.0,60,52,44,30.31,30.21,5,1,0,0.00
2012-3-10,47.0,34.5,28.0,31.0,21.2,11.0,92,60,40,30.22,29.83,5,1,0,0.00
2012-3-11,51.0,36.8,22.0,27.0,20.5,13.0,89,57,25,29.93,29.75,8,2,0,0.00
2012-3-12,49.0,35.7,24.0,23.0,16.8,12.0,63,47,29,30.12,29.93,5,1,0,0.00
2012-3-13,53.0,37.6,27.0,20.0,15.3,11.0,60,43,19,30.12,29.97,6,1,0,0.00
2012-3-14,54.0,38.9,25.0,15.0,11.1,8.0,50,34,17,30.12,30.03,4,1,0,0.00
2012-3-15,57.0,41.1,27.0,22.0,14.8,7.0,49,35,22,30.18,30.03,4,1,0,0.00
2012-3-16,58.0,41.8,30.0,22.0,16.9,12.0,58,39,18,30.06,29.82,4,1,0,0.00
2012-3-17,55.0,42.1,30.0,21.0,16.3,14.0,55,37,21,29.84,29.63,7,1,0,0.00
2012-3-18,44.0,34.4,20.0,28.0,19.0,14.0,85,57,32,29.64,29.27,10,3,0,0.00
2012-3-19,25.0,19.0,10.0,18.0,13.7,5.0,84,80,58,29.91,29.59,5,1,0,0.00
2012-3-20,41.0,24.1,8.0,13.0,6.0,2.0,83,51,22,30.16,29.91,5,1,0,0.00
2012-3-21,53.0,33.8,19.0,27.0,15.0,4.0,60,47,32,30.16,29.91,4,1,0,0.00
2012-3-22,59.0,42.0,29.0,29.0,19.2,-99.9,57,42,23,29.99,29.76,5,-7,0,0.00
2012-3-23,62.0,44.3,30.0,27.0,18.9,12.0,58,38,19,30.01,29.89,4,1,0,0.00
2012-3-24,61.0,45.5,32.0,27.0,21.2,16.0,56,40,24,30.01,29.93,4,1,0,0.00
2012-3-25,62.0,48.0,35.0,27.0,22.8,19.0,54,39,23,29.98,29.75,4,0,0,0.00
2012-3-26,55.0,46.3,36.0,27.0,19.7,16.0,48,35,25,29.85,29.67,7,2,0,0.00
2012-3-27,56.0,42.5,30.0,24.0,18.8,15.0,62,40,24,29.99,29.85,5,1,0,0.00
2012-3-28,59.0,42.0,30.0,22.0,16.9,14.0,53,38,21,30.01,29.86,4,1,0,0.00
2012-3-29,60.0,44.7,33.0,26.0,18.9,13.0,50,36,25,29.90,29.78,5,1,0,0.00
2012-3-30,63.0,46.8,33.0,28.0,21.7,16.0,52,38,25,29.88,29.77,5,1,0,0.00
2012-3-31,65.0,49.4,36.0,29.0,24.9,21.0,61,41,24,29.88,29.68,5,1,0,0.00
2012-4-1,60.0,47.1,35.0,27.0,21.3,17.0,56,37,21,29.70,29.37,7,2,0,0.00
2012-4-2,38.0,31.9,26.0,28.0,21.5,14.0,86,66,39,29.80,29.38,4,1,0,0.00
2012-4-3,40.0,34.1,30.0,32.0,28.1,25.0,89,79,63,30.00,29.78,6,2,0,0.00
2012-4-4,59.0,40.5,25.0,37.0,25.8,17.0,89,61,24,30.01,29.82,6,2,0,0.00
2012-4-5,56.0,44.3,31.0,28.0,21.3,16.0,57,41,26,29.87,29.74,5,1,0,0.00
2012-4-6,53.0,43.2,35.0,29.0,14.6,-1.0,57,34,15,29.95,29.73,8,2,0,0.00
2012-4-7,58.0,39.3,25.0,14.0,6.5,0.0,35,26,16,30.26,29.96,4,1,0,0.00
2012-4-8,62.0,43.8,30.0,23.0,13.9,6.0,40,30,20,59.08,30.06,6,1,0,0.00
2012-4-9,66.0,49.7,37.0,29.0,21.1,16.0,52,34,18,30.09,29.86,5,1,0,0.00
2012-4-10,44.0,38.9,36.0,25.0,20.0,17.0,54,46,35,29.96,29.92,0,0,0,0.00
2012-4-12,40.0,36.7,32.0,12.0,10.1,9.0,43,33,29,29.82,29.75,4,2,0,0.00
2012-4-13,43.0,34.2,26.0,23.0,16.5,10.0,66,49,32,29.92,29.71,5,1,0,0.00
2012-4-14,38.0,30.1,22.0,24.0,17.6,-99.9,87,64,32,29.76,29.53,6,2,0,0.00
2012-4-15,44.0,29.5,21.0,29.0,20.9,16.0,87,72,35,30.11,29.76,8,2,0,0.00
2012-4-16,50.0,36.0,24.0,22.0,18.2,15.0,75,51,30,30.21,30.11,9,2,0,0.00
2012-4-17,55.0,41.5,27.0,25.0,18.7,14.0,60,42,25,30.24,30.03,5,1,0,0.00
2012-4-18,61.0,47.3,31.0,27.0,21.7,17.0,59,38,22,30.07,29.79,8,2,0,0.00
2012-4-19,58.0,47.7,43.0,32.0,26.4,22.0,58,44,26,29.83,29.67,8,2,0,0.00
2012-4-20,63.0,47.3,32.0,32.0,25.1,20.0,63,44,28,30.03,29.84,5,1,0,0.00
2012-4-21,71.0,52.8,38.0,29.0,22.9,17.0,47,33,19,30.01,29.83,4,1,0,0.00
2012-4-22,71.0,54.5,40.0,29.0,24.0,19.0,44,32,19,29.95,29.83,8,1,0,0.00
2012-4-23,70.0,54.9,40.0,35.0,27.9,22.0,51,37,23,29.98,29.80,8,1,0,0.00
2012-4-24,72.0,56.5,41.0,34.0,26.4,21.0,50,34,17,29.87,29.68,8,2,0,0.00
2012-4-25,65.0,54.1,45.0,36.0,27.5,16.0,53,37,23,29.86,29.72,8,2,0,0.00
2012-4-26,65.0,49.1,32.0,38.0,32.0,28.0,89,55,27,29.84,29.49,7,1,0,0.00
2012-4-27,55.0,42.1,32.0,38.0,30.5,24.0,90,67,36,29.86,29.64,7,2,0,0.00
2012-4-28,55.0,43.4,34.0,29.0,22.5,-99.9,65,46,29,29.86,29.69,6,2,0,0.00
2012-4-29,60.0,45.1,32.0,28.0,21.9,14.0,64,43,21,29.91,29.78,7,2,0,0.00
2012-4-30,62.0,46.8,31.0,28.0,19.6,13.0,57,36,18,29.95,29.79,6,2,0,0.00
2012-5-1,60.0,49.0,37.0,30.0,23.3,15.0,50,37,28,29.79,29.64,7,2,0,0.00
2012-5-2,62.0,49.2,35.0,33.0,26.3,23.0,65,43,25,29.77,29.69,6,2,0,0.00
2012-5-3,66.0,51.7,37.0,31.0,25.9,23.0,60,39,22,29.87,29.75,6,1,0,0.00
2012-5-4,69.0,53.2,38.0,30.0,24.7,20.0,55,35,17,29.86,29.75,5,2,0,0.00
2012-5-5,67.0,51.6,36.0,29.0,21.2,-99.9,51,33,17,29.82,29.70,6,2,0,0.00
2012-5-6,63.0,50.0,37.0,26.0,21.4,17.0,47,34,18,29.82,29.76,6,1,0,0.00
2012-5-7,53.0,42.4,36.0,36.0,30.1,22.0,87,64,36,29.99,29.69,10,1,0,0.00
2012-5-8,57.0,43.1,31.0,35.0,29.7,26.0,85,62,32,30.11,29.97,3,1,0,0.00
2012-5-9,64.0,47.4,34.0,35.0,30.9,28.0,81,56,27,30.06,29.81,7,1,0,0.00
2012-5-10,67.0,51.8,37.0,33.0,29.6,26.0,65,45,23,29.84,29.62,7,1,0,0.00
2012-5-11,67.0,53.5,40.0,37.0,29.7,24.0,58,41,27,29.85,29.65,7,1,0,0.00
2012-5-12,60.0,47.7,40.0,40.0,34.9,-99.9,84,65,35,30.06,29.85,6,1,0,0.00
2012-5-13,57.0,44.2,37.0,36.0,31.7,28.0,77,62,39,30.10,30.02,4,1,0,0.00
2012-5-14,67.0,50.6,34.0,35.0,29.1,25.0,71,47,26,30.16,29.96,4,1,0,0.00
2012-5-15,70.0,53.4,38.0,36.0,30.9,27.0,66,45,26,30.03,29.89,4,1,0,0.00
2012-5-16,70.0,53.0,39.0,35.0,28.8,24.0,63,42,19,29.98,29.75,6,1,0,0.00
2012-5-17,70.0,54.6,39.0,35.0,29.4,22.0,66,41,19,29.80,29.59,7,1,0,0.00
2012-5-18,65.0,53.1,42.0,31.0,24.6,18.0,54,34,18,29.61,29.44,9,2,0,0.00
2012-5-19,65.0,51.5,37.0,33.0,26.1,-99.9,60,39,27,29.87,29.55,6,2,0,0.00
2012-5-20,70.0,52.3,36.0,33.0,26.4,23.0,60,39,21,30.01,29.86,6,1,0,0.00
2012-5-21,75.0,57.3,40.0,36.0,28.9,23.0,50,35,21,30.02,29.78,5,1,0,0.00
2012-5-22,75.0,59.0,42.0,36.0,26.9,19.0,48,32,16,29.83,29.51,6,2,0,0.00
2012-5-23,73.0,60.0,43.0,33.0,25.4,19.0,49,27,20,29.51,29.14,12,4,0,0.00
2012-5-24,63.0,54.7,48.0,27.0,21.9,17.0,41,29,17,29.45,29.26,8,3,0,0.00
2012-5-25,71.0,58.8,43.0,37.0,29.4,23.0,57,35,20,29.57,29.45,9,3,0,0.00
2012-5-26,68.0,54.2,43.0,32.0,23.0,5.0,53,31,20,29.62,29.36,11,3,0,0.00
2012-5-27,55.0,42.1,29.0,17.0,11.5,5.0,47,29,19,29.96,29.62,8,2,0,0.00
2012-5-28,64.0,46.4,30.0,25.0,17.4,12.0,47,33,19,30.00,29.89,6,2,0,0.00
2012-5-29,71.0,47.3,35.0,27.0,19.5,16.0,49,35,14,29.96,29.80,7,1,0,0.00
2012-5-30,75.0,55.5,39.0,30.0,21.5,15.0,40,28,15,29.83,29.63,5,1,0,0.00
2012-5-31,76.0,59.7,45.0,36.0,27.6,21.0,42,30,20,29.73,29.57,4,1,0,0.00
2012-6-1,80.0,61.1,46.0,39.0,32.2,28.0,51,35,20,29.69,29.54,7,1,0,0.00
2012-6-2,78.0,60.2,47.0,41.0,31.3,-99.9,51,36,21,29.65,29.52,5,1,0,0.00
2012-6-3,77.0,60.4,46.0,47.0,33.6,29.0,54,38,22,29.76,29.64,4,0,0,0.00
2012-6-4,74.0,60.8,49.0,41.0,36.3,31.0,56,41,25,29.77,29.66,4,1,0,0.00
2012-6-5,75.0,58.2,46.0,40.0,33.1,22.0,67,43,17,29.73,29.54,6,1,0,0.00
2012-6-6,75.0,57.7,42.0,35.0,27.7,23.0,53,33,16,29.68,29.57,5,1,0,0.00
2012-6-7,76.0,56.7,42.0,33.0,24.6,20.0,46,31,16,29.75,29.63,5,1,0,0.00
2012-6-8,77.0,58.6,43.0,35.0,26.3,22.0,44,30,17,29.75,29.57,5,1,0,0.00
2012-6-9,75.0,57.7,43.0,33.0,25.1,20.0,51,30,17,29.60,29.43,7,2,0,0.00
2012-6-10,70.0,58.5,45.0,32.0,25.7,17.0,48,29,19,29.75,29.47,8,2,0,0.00
2012-6-11,74.0,55.3,39.0,28.0,21.3,16.0,45,28,15,29.91,29.75,6,2,0,0.00
2012-6-12,77.0,59.0,42.0,34.0,24.4,16.0,40,27,16,29.92,29.71,5,1,0,0.00
2012-6-13,79.0,59.7,44.0,32.0,23.7,19.0,38,27,13,29.76,29.53,7,1,0,0.00
2012-6-14,79.0,59.7,44.0,32.0,22.8,18.0,36,25,12,29.65,29.56,4,1,0,0.00
2012-6-15,78.0,60.6,45.0,35.0,24.5,19.0,40,26,15,29.70,29.60,5,1,0,0.00
2012-6-16,79.0,60.2,47.0,36.0,27.8,-99.9,44,31,18,29.79,29.68,6,1,0,0.00
2012-6-17,81.0,62.4,45.0,41.0,30.6,22.0,48,32,18,29.84,29.58,8,2,0,0.00
2012-6-18,79.0,62.7,48.0,34.0,26.2,22.0,40,26,15,29.63,29.44,7,2,0,0.00
2012-6-19,81.0,62.1,50.0,34.0,25.2,18.0,35,25,16,29.53,29.39,6,1,0,0.00
2012-6-20,83.0,64.5,50.0,34.0,26.7,22.0,38,25,15,29.65,29.48,9,2,0,0.00
2012-6-21,85.0,67.2,48.0,38.0,30.3,22.0,39,26,15,29.75,29.60,6,1,0,0.00
2012-6-22,83.0,67.0,52.0,46.0,38.1,29.0,64,38,17,29.69,29.46,7,2,0,0.00
2012-6-23,84.0,66.8,52.0,39.0,32.5,25.0,43,29,17,29.66,29.52,7,1,0,0.00
2012-6-24,88.0,68.9,53.0,44.0,37.0,32.0,50,34,15,29.74,29.59,4,1,0,0.00
2012-6-25,85.0,70.3,54.0,39.0,34.9,30.0,43,29,17,29.72,29.55,6,1,0,0.00
2012-6-26,82.0,67.3,54.0,47.0,39.7,33.0,61,38,24,29.68,29.52,6,1,0,0.00
2012-6-27,79.0,65.5,54.0,49.0,45.4,41.0,72,51,27,29.84,29.63,6,1,0,0.00
2012-6-28,81.0,67.0,52.0,49.0,44.0,41.0,67,46,28,29.85,29.73,6,1,0,0.00
2012-6-29,83.0,67.3,52.0,52.0,42.1,36.0,62,42,25,29.82,29.62,5,1,0,0.00
2012-6-30,86.0,68.1,51.0,46.0,37.1,33.0,52,34,18,29.72,29.55,4,1,0,0.00
2012-7-1,88.0,69.6,53.0,44.0,36.7,31.0,44,31,17,29.65,29.48,7,1,0,0.00
2012-7-2,86.0,66.6,54.0,48.0,42.0,35.0,66,42,22,29.65,29.50,4,1,0,0.00
2012-7-3,81.0,65.2,51.0,48.0,44.2,40.0,70,49,29,29.70,29.57,4,1,0,0.00
2012-7-4,83.0,65.2,53.0,51.0,46.2,42.0,77,53,28,29.70,29.49,7,1,0,0.00
2012-7-5,73.0,61.3,53.0,53.0,50.8,48.0,90,70,46,29.82,29.63,5,1,0,0.00
2012-7-6,75.0,60.1,49.0,52.0,48.7,44.0,88,68,35,29.88,29.75,12,1,0,0.00
2012-7-7,71.0,58.6,53.0,54.0,50.4,48.0,88,75,51,29.98,29.83,3,0,0,0.00
2012-7-8,78.0,59.5,51.0,54.0,49.6,46.0,89,72,37,29.99,29.87,4,1,0,0.00
2012-7-9,74.0,58.3,50.0,53.0,49.8,45.0,87,75,45,29.95,29.84,4,0,0,0.00
2012-7-10,72.0,60.2,48.0,53.0,47.5,43.0,87,65,46,30.00,29.84,4,1,0,0.00
2012-7-11,75.0,61.2,48.0,55.0,47.2,42.0,82,61,43,29.95,29.77,3,1,0,0.00
2012-7-12,77.0,63.0,48.0,51.0,45.0,40.0,74,54,36,29.91,29.74,4,0,0,0.00
2012-7-15,71.0,65.5,57.0,53.0,48.0,44.0,73,54,40,29.86,29.80,5,2,0,0.00
2012-7-16,74.0,61.3,51.0,50.0,47.2,43.0,80,61,38,29.81,29.66,6,1,0,0.00
2012-7-17,80.0,62.3,47.0,49.0,43.6,40.0,80,54,29,29.80,29.67,5,1,0,0.00
2012-7-18,85.0,64.9,51.0,51.0,45.0,40.0,69,52,24,29.82,29.69,5,1,0,0.00
2012-7-19,84.0,66.6,52.0,52.0,46.4,43.0,72,51,24,29.88,29.72,5,1,0,0.00
2012-7-20,83.0,67.1,51.0,52.0,48.0,42.0,84,55,27,29.90,29.73,4,1,0,0.00
2012-7-21,84.0,64.2,52.0,52.0,48.2,40.0,80,59,28,29.90,29.72,5,1,0,0.00
2012-7-22,83.0,64.8,52.0,52.0,47.1,43.0,85,56,27,29.94,29.78,5,1,0,0.00
2012-7-23,83.0,64.8,51.0,49.0,45.5,42.0,75,53,24,29.85,29.68,5,1,0,0.00
2012-7-24,72.0,59.3,49.0,55.0,48.2,42.0,84,68,45,29.82,29.71,3,0,0,0.00
2012-7-25,81.0,64.6,48.0,53.0,46.6,38.0,86,57,29,29.80,29.60,6,1,0,0.00
2012-7-26,83.0,66.3,54.0,51.0,42.5,38.0,85,45,24,29.80,29.63,6,1,0,0.00
2012-7-27,74.0,60.8,53.0,54.0,49.7,45.0,85,68,39,29.91,29.77,5,0,0,0.00
2012-7-28,81.0,65.8,54.0,54.0,48.9,45.0,83,58,30,29.96,29.75,4,1,0,0.00
2012-7-29,80.0,66.2,53.0,54.0,49.3,45.0,88,58,32,29.86,29.71,5,1,0,0.00
2012-7-30,82.0,67.1,53.0,53.0,46.8,40.0,84,52,27,29.84,29.69,4,1,0,0.00
2012-7-31,85.0,66.4,53.0,49.0,43.4,39.0,70,47,21,29.86,29.67,10,1,0,0.00
2012-8-1,79.0,66.0,51.0,49.0,46.1,43.0,75,51,34,29.85,29.73,5,1,0,0.00
2012-8-2,81.0,62.1,51.0,54.0,47.2,43.0,76,61,32,29.81,29.68,5,1,0,0.00
2012-8-3,76.0,59.0,48.0,52.0,45.5,42.0,79,63,34,29.82,29.73,8,1,0,0.00
2012-8-4,80.0,61.5,49.0,51.0,43.6,40.0,79,55,26,29.91,29.77,4,1,0,0.00
2012-8-5,79.0,61.0,49.0,51.0,44.9,39.0,89,58,32,30.07,29.87,4,1,0,0.00
2012-8-6,79.0,62.2,48.0,53.0,49.0,45.0,90,66,36,30.07,29.91,3,1,0,0.00
2012-8-7,80.0,64.5,51.0,51.0,46.2,43.0,74,53,33,29.93,29.79,3,1,0,0.00
2012-8-8,84.0,66.9,52.0,48.0,43.8,40.0,65,46,25,29.94,29.80,3,1,0,0.00
2012-8-9,82.0,65.3,55.0,49.0,45.1,42.0,67,49,28,29.92,29.78,4,1,0,0.00
2012-8-10,79.0,63.7,51.0,50.0,45.1,40.0,67,52,32,29.90,29.74,5,1,0,0.00
2012-8-11,82.0,66.0,52.0,48.0,41.7,-99.9,68,45,24,29.81,29.68,8,2,0,0.00
2012-8-12,79.0,64.5,51.0,46.0,42.0,38.0,61,45,27,29.86,29.75,3,0,0,0.00
2012-8-13,78.0,62.3,51.0,52.0,45.4,41.0,72,55,33,29.91,29.69,11,1,0,0.00
2012-8-14,76.0,63.7,53.0,50.0,45.7,40.0,74,54,32,29.78,29.65,4,0,0,0.00
2012-8-15,83.0,63.6,48.0,46.0,41.2,39.0,71,48,23,29.75,29.58,4,1,0,0.00
2012-8-16,79.0,66.4,51.0,46.0,40.9,37.0,58,41,27,29.79,29.63,4,0,0,0.00
2012-8-17,76.0,62.0,53.0,53.0,46.1,42.0,71,57,38,29.82,29.71,4,0,0,0.00
2012-8-18,79.0,59.5,48.0,52.0,43.7,39.0,79,59,29,29.83,29.69,4,1,0,0.00
2012-8-19,78.0,61.6,48.0,49.0,43.9,39.0,76,55,30,29.87,29.68,5,1,0,0.00
2012-8-20,70.0,59.8,51.0,54.0,46.1,40.0,82,61,48,29.81,29.68,3,1,0,0.00
2012-8-21,81.0,62.9,47.0,47.0,40.9,38.0,81,49,24,29.90,29.72,4,1,0,0.00
2012-8-22,66.0,60.5,55.0,48.0,44.2,38.0,72,55,44,29.77,29.70,3,0,0,0.00
2012-8-23,69.0,57.4,51.0,54.0,49.8,47.0,91,77,50,29.78,29.67,3,0,0,0.00
2012-8-24,68.0,56.7,49.0,53.0,48.9,44.0,92,77,54,29.77,29.66,6,1,0,0.00
2012-8-25,76.0,61.9,48.0,48.0,41.7,37.0,70,50,27,29.77,29.67,9,1,0,0.00
2012-8-26,81.0,62.5,49.0,49.0,43.4,40.0,72,52,30,29.88,29.77,4,1,0,0.00
2012-8-27,81.0,65.2,55.0,48.0,45.1,42.0,67,50,27,29.96,29.81,4,1,0,0.00
2012-8-28,83.0,64.7,51.0,47.0,43.6,40.0,71,49,24,29.99,29.79,4,1,0,0.00
2012-8-29,83.0,63.7,51.0,50.0,42.8,39.0,66,48,28,29.85,29.68,4,1,0,0.00
2012-8-30,82.0,65.9,50.0,46.0,41.5,38.0,66,43,24,29.77,29.59,5,1,0,0.00
2012-8-31,81.0,66.2,52.0,43.0,39.3,35.0,61,40,22,29.78,29.66,4,1,0,0.00
2012-9-1,79.0,64.9,53.0,47.0,40.4,35.0,73,42,28,29.85,29.71,14,2,0,0.00
2012-9-2,78.0,63.1,49.0,47.0,45.2,42.0,79,55,33,29.84,29.73,4,1,0,0.00
2012-9-3,79.0,66.0,53.0,47.0,42.0,34.0,69,44,25,29.84,29.70,7,1,0,0.00
2012-9-4,80.0,64.5,49.0,42.0,35.3,29.0,53,36,22,29.86,29.69,7,2,0,0.00
2012-9-5,82.0,65.8,53.0,34.0,29.7,25.0,38,27,17,29.79,29.62,6,1,0,0.00
2012-9-6,80.0,63.2,47.0,36.0,29.8,23.0,41,29,19,29.80,29.67,5,1,0,0.00
2012-9-7,82.0,65.9,53.0,44.0,37.0,27.0,56,36,24,29.81,29.62,8,1,0,0.00
2012-9-8,66.0,56.3,47.0,50.0,42.7,28.0,87,62,32,30.01,29.81,5,1,0,0.00
2012-9-9,74.0,57.4,44.0,43.0,39.6,35.0,85,56,29,30.10,29.88,4,1,0,0.00
2012-9-10,72.0,58.1,46.0,45.0,40.2,35.0,73,53,35,29.95,29.74,4,1,0,0.00
2012-9-11,67.0,57.5,49.0,48.0,43.1,39.0,79,60,45,29.83,29.69,6,1,0,0.00
2012-9-12,63.0,52.0,47.0,49.0,46.6,43.0,90,82,59,29.99,29.75,3,0,0,0.00
2012-9-13,68.0,52.8,40.0,43.0,38.6,30.0,88,63,28,30.19,29.99,5,1,0,0.00
2012-9-14,67.0,51.9,38.0,43.0,38.2,34.0,84,62,39,30.21,30.05,4,1,0,0.00
2012-9-15,73.0,54.9,39.0,42.0,36.6,31.0,80,54,29,30.14,29.91,5,1,0,0.00
2012-9-16,76.0,57.8,43.0,33.0,25.7,19.0,49,31,16,29.96,29.73,7,1,0,0.00
2012-9-17,71.0,54.9,43.0,32.0,25.5,21.0,45,33,21,29.93,29.71,7,1,0,0.00
2012-9-18,72.0,53.5,38.0,35.0,27.5,22.0,55,38,23,30.06,29.91,5,1,0,0.00
2012-9-19,74.0,55.3,40.0,31.0,25.0,20.0,46,33,19,30.03,29.86,4,1,0,0.00
2012-9-20,74.0,55.4,41.0,30.0,23.2,18.0,40,30,18,29.95,29.80,4,1,0,0.00
2012-9-21,75.0,57.2,45.0,30.0,24.4,20.0,40,29,18,29.93,29.81,3,1,0,0.00
2012-9-22,74.0,55.3,41.0,30.0,22.2,-99.9,41,29,18,30.02,29.91,5,1,0,0.00
2012-9-23,72.0,56.7,45.0,34.0,26.5,20.0,41,32,22,30.02,29.90,6,1,0,0.00
2012-9-24,64.0,53.5,46.0,43.0,35.0,27.0,79,50,36,29.93,29.78,11,1,0,0.00
2012-9-25,58.0,47.1,39.0,43.0,37.9,32.0,90,72,46,29.89,29.80,6,1,0,0.00
2012-9-26,61.0,49.1,39.0,40.0,36.1,32.0,85,63,37,29.96,29.87,5,1,0,0.00
2012-9-27,66.0,49.9,36.0,38.0,34.1,30.0,83,58,32,30.03,29.91,5,1,0,0.00
2012-9-28,68.0,52.1,37.0,36.0,32.9,30.0,76,51,28,29.99,29.84,4,1,0,0.00
2012-9-29,69.0,51.7,38.0,44.0,34.3,29.0,80,54,29,29.99,29.83,5,1,0,0.00
2012-9-30,72.0,54.5,40.0,38.0,30.1,25.0,67,43,21,29.98,29.83,4,1,0,0.00
2012-10-1,69.0,54.2,40.0,33.0,29.0,25.0,54,39,25,30.01,29.83,5,1,0,0.00
2012-10-2,72.0,53.4,38.0,34.0,27.4,22.0,51,38,24,29.91,29.72,5,1,0,0.00
2012-10-3,72.0,54.9,41.0,31.0,25.6,21.0,46,34,19,29.84,29.70,8,2,0,0.00
2012-10-4,68.0,54.9,41.0,31.0,25.9,22.0,51,33,23,29.92,29.80,8,2,0,0.00
2012-10-5,66.0,53.3,41.0,30.0,24.7,22.0,49,34,23,29.82,29.70,7,2,0,0.00
2012-10-6,62.0,51.3,44.0,23.0,17.9,8.0,38,28,13,29.75,29.65,6,2,0,0.00
2012-10-7,60.0,43.7,33.0,16.0,8.6,1.0,45,24,16,29.95,29.72,5,1,0,0.00
2012-10-8,62.0,45.4,28.0,20.0,12.9,3.0,37,27,18,30.05,29.90,6,2,0,0.00
2012-10-9,67.0,45.2,37.0,29.0,19.7,14.0,46,36,23,29.96,29.78,6,1,0,0.00
2012-10-10,67.0,51.6,37.0,32.0,24.9,18.0,49,36,26,30.00,29.84,5,1,0,0.00
2012-10-11,66.0,50.0,38.0,39.0,28.2,21.0,76,45,26,29.96,29.84,4,1,0,0.00
2012-10-12,53.0,45.9,34.0,43.0,34.2,22.0,82,65,45,29.92,29.69,10,2,0,0.00
2012-10-13,53.0,39.6,31.0,34.0,28.3,21.0,76,64,47,30.17,29.88,6,1,0,0.00
2012-10-14,61.0,44.6,32.0,34.0,30.0,26.0,80,59,34,30.28,30.10,4,1,0,0.00
2012-10-15,66.0,46.9,34.0,34.0,28.3,22.0,74,52,21,30.16,29.88,4,1,0,0.00
2012-10-16,66.0,49.0,34.0,30.0,23.7,17.0,50,38,25,29.91,29.63,5,2,0,0.00
2012-10-17,64.0,51.9,40.0,32.0,17.5,6.0,43,28,11,29.78,29.56,11,4,0,0.00
2012-10-18,63.0,43.0,31.0,24.0,13.8,7.0,44,31,20,30.01,29.78,5,1,0,0.00
2012-10-19,65.0,46.7,36.0,26.0,19.4,16.0,47,35,21,30.00,29.82,5,1,0,0.00
2012-10-20,66.0,46.3,33.0,25.0,17.0,11.0,41,32,20,29.88,29.70,5,1,0,0.00
2012-10-21,61.0,46.3,34.0,31.0,22.9,14.0,54,40,30,29.82,29.72,5,1,0,0.00
2012-10-22,59.0,45.3,34.0,31.0,26.7,24.0,68,49,33,29.86,29.77,4,1,0,0.00
2012-10-23,60.0,48.3,39.0,32.0,27.3,23.0,62,45,29,29.84,29.73,7,1,0,0.00
2012-10-24,56.0,45.2,34.0,30.0,22.1,11.0,64,42,22,29.77,29.54,11,3,0,0.00
2012-10-25,44.0,34.6,25.0,15.0,8.9,5.0,54,35,23,30.13,29.75,7,2,0,0.00
2012-10-26,44.0,28.8,20.0,14.0,3.7,-2.0,55,36,17,30.35,30.13,5,1,0,0.00
2012-10-27,50.0,32.6,20.0,14.0,5.0,-2.0,42,31,22,30.28,30.11,5,1,0,0.00
2012-10-28,56.0,40.0,28.0,23.0,14.3,7.0,47,35,26,30.20,30.05,4,1,0,0.00
2012-10-29,62.0,44.2,32.0,27.0,20.4,16.0,54,40,24,30.18,30.02,5,1,0,0.00
2012-10-30,61.0,43.2,33.0,24.0,18.0,14.0,46,37,23,30.10,29.96,4,0,0,0.00
2012-10-31,62.0,45.5,34.0,23.0,17.8,14.0,44,34,21,30.09,29.97,4,1,0,0.00
2012-11-1,60.0,43.4,32.0,21.0,15.6,11.0,45,34,20,30.08,29.91,5,1,0,0.00
2012-11-2,56.0,42.0,33.0,19.0,13.4,9.0,43,32,23,30.03,29.91,5,1,0,0.00
2012-11-3,49.0,33.7,28.0,15.0,10.9,7.0,44,39,25,30.14,30.03,1,0,0,0.00
2012-11-18,48.0,38.9,29.0,28.0,25.3,22.0,75,59,45,30.15,30.02,6,1,0,0.00
2012-11-19,50.0,35.3,26.0,28.0,22.9,18.0,77,62,41,30.33,30.14,3,1,0,0.00
2012-11-22,52.0,42.8,32.0,23.0,20.6,18.0,56,42,30,30.32,30.14,4,1,0,0.00
2012-11-23,50.0,36.7,28.0,24.0,19.0,14.0,63,49,35,30.42,30.32,4,1,0,0.00
2012-11-24,51.0,35.7,26.0,24.0,18.9,14.0,65,52,32,30.37,30.11,5,1,0,0.00
2012-11-25,51.0,35.8,25.0,22.0,14.9,10.0,62,44,25,30.12,29.92,5,1,0,0.00
2012-11-26,50.0,35.0,25.0,18.0,12.8,8.0,50,41,26,30.29,30.00,4,1,0,0.00
2012-11-27,49.0,32.1,21.0,16.0,9.1,1.0,49,39,24,30.41,30.29,4,0,0,0.00
2012-11-28,51.0,34.5,24.0,20.0,13.1,6.0,54,42,28,30.41,30.20,5,1,0,0.00
2012-11-29,49.0,35.8,27.0,25.0,20.2,15.0,68,54,34,30.24,30.11,4,1,0,0.00
2012-11-30,49.0,35.6,26.0,28.0,22.3,18.0,75,59,42,30.21,30.07,4,1,0,0.00
2012-12-1,49.0,37.4,29.0,27.0,22.2,18.0,71,55,41,30.14,30.03,4,1,0,0.00
2012-12-2,51.0,35.7,27.0,26.0,21.0,17.0,73,57,33,30.16,29.98,4,1,0,0.00
2012-12-3,49.0,38.9,30.0,31.0,23.8,18.0,73,55,38,30.16,29.94,7,1,0,0.00
2012-12-4,47.0,32.8,24.0,23.0,15.0,7.0,65,49,34,30.41,30.16,4,0,0,0.00
2012-12-5,50.0,37.0,28.0,25.0,20.4,17.0,66,52,35,30.39,30.01,5,1,0,0.00
2012-12-6,46.0,35.2,29.0,25.0,19.1,-99.9,68,54,39,30.02,29.84,3,0,0,0.00
2012-12-7,47.0,33.8,25.0,25.0,19.6,13.0,77,57,33,29.91,29.81,5,1,0,0.00
2012-12-8,42.0,30.2,20.0,23.0,15.1,10.0,74,54,38,29.93,29.80,5,1,0,0.00
2012-12-9,29.0,21.9,8.0,16.0,0.8,-14.0,62,41,22,30.24,29.76,9,2,0,0.00
2012-12-10,23.0,13.7,4.0,11.0,-2.8,-13.0,78,48,32,30.37,30.22,4,1,0,0.00
2012-12-11,29.0,17.6,8.0,9.0,5.1,2.0,82,60,36,30.32,30.23,4,1,0,0.00
2012-12-12,37.0,23.3,12.0,14.0,8.6,3.0,70,54,39,30.33,30.22,3,0,0,0.00
2012-12-13,44.0,29.8,18.0,17.0,11.9,7.0,62,48,32,30.25,29.96,4,0,0,0.00
2012-12-14,34.0,28.1,24.0,27.0,23.1,13.0,89,82,46,29.97,29.57,2,0,0,0.00
2012-12-15,26.0,23.2,21.0,22.0,19.8,18.0,92,86,83,29.97,29.84,2,0,0,0.00
2012-12-16,23.0,17.6,10.0,19.0,13.2,6.0,87,82,67,30.24,29.85,8,1,0,0.00
2012-12-17,24.0,15.5,6.0,18.0,11.4,2.0,89,84,72,30.33,30.21,4,0,0,0.00
2012-12-18,27.0,23.4,20.0,24.0,20.0,17.0,89,87,79,30.22,29.72,3,0,0,0.00
2012-12-19,28.0,19.5,1.0,25.0,10.6,-8.0,90,70,35,30.42,29.51,7,2,0,0.00
2012-12-20,27.0,11.5,0.0,9.0,1.5,-8.0,75,64,43,30.80,30.41,3,0,0,0.00
2012-12-21,45.0,22.8,12.0,20.0,10.2,3.0,75,60,31,30.78,30.40,4,0,0,0.00
2012-12-22,39.0,23.8,15.0,15.0,7.8,4.0,65,51,26,30.41,30.24,3,0,0,0.00
2012-12-23,38.0,24.2,15.0,20.0,13.1,4.0,75,63,47,30.29,30.13,5,0,0,0.00
2012-12-24,29.0,23.0,15.0,21.0,16.7,10.0,87,77,59,30.15,29.73,2,0,0,0.00
2012-12-25,26.0,16.3,10.0,16.0,10.3,5.0,85,77,62,30.27,29.80,4,1,0,0.00
2012-12-26,28.0,19.1,11.0,16.0,11.0,6.0,92,71,46,30.26,29.86,3,0,0,0.00
2012-12-27,24.0,16.0,7.0,16.0,11.0,1.0,85,80,65,30.06,29.83,4,1,0,0.00
2012-12-28,21.0,9.2,1.0,10.0,2.2,-4.0,81,73,56,30.55,30.06,5,1,0,0.00
2012-12-29,31.0,15.2,1.0,7.0,0.0,-5.0,79,54,25,30.62,30.34,5,0,0,0.00
2012-12-30,34.0,22.3,11.0,19.0,8.4,-2.0,86,56,40,30.37,29.92,3,0,0,0.00
2012-12-31,25.0,19.2,10.0,20.0,14.9,6.0,87,84,78,30.15,29.81,5,1,0,0.00
2013-1-1,20.0,8.7,1.0,11.0,2.9,-5.0,90,77,62,30.56,30.14,3,0,0,0.00